sensor_id;sensor_type;location;lat;lon;timestamp;temperature;humidity
3312;DHT22;1668;49.648;8.570;2023-07-13T00:01:04;22.00;36.70
3312;DHT22;1668;49.648;8.570;2023-07-13T00:03:32;22.10;36.60
3312;DHT22;1668;49.648;8.570;2023-07-13T00:06:02;22.00;37.00
3312;DHT22;1668;49.648;8.570;2023-07-13T00:08:31;21.90;36.90
3312;DHT22;1668;49.648;8.570;2023-07-13T00:10:59;21.90;37.20
3312;DHT22;1668;49.648;8.570;2023-07-13T00:13:26;21.80;35.80
3312;DHT22;1668;49.648;8.570;2023-07-13T00:15:53;21.70;37.20
3312;DHT22;1668;49.648;8.570;2023-07-13T00:18:21;21.60;37.30
3312;DHT22;1668;49.648;8.570;2023-07-13T00:20:48;21.60;37.30
3312;DHT22;1668;49.648;8.570;2023-07-13T00:23:17;21.50;37.50
3312;DHT22;1668;49.648;8.570;2023-07-13T00:25:44;21.50;38.20
3312;DHT22;1668;49.648;8.570;2023-07-13T00:28:11;21.40;38.00
3312;DHT22;1668;49.648;8.570;2023-07-13T00:30:38;21.40;38.70
3312;DHT22;1668;49.648;8.570;2023-07-13T00:33:05;21.40;38.80
3312;DHT22;1668;49.648;8.570;2023-07-13T00:35:33;21.40;38.10
3312;DHT22;1668;49.648;8.570;2023-07-13T00:38:00;21.40;39.20
3312;DHT22;1668;49.648;8.570;2023-07-13T00:40:29;21.30;39.20
3312;DHT22;1668;49.648;8.570;2023-07-13T00:42:57;21.30;38.90
3312;DHT22;1668;49.648;8.570;2023-07-13T00:48:32;21.30;39.10
3312;DHT22;1668;49.648;8.570;2023-07-13T00:51:01;21.20;38.70
3312;DHT22;1668;49.648;8.570;2023-07-13T00:53:29;21.30;39.20
3312;DHT22;1668;49.648;8.570;2023-07-13T00:55:59;21.20;40.30
3312;DHT22;1668;49.648;8.570;2023-07-13T00:58:27;21.20;40.50
3312;DHT22;1668;49.648;8.570;2023-07-13T01:00:54;21.20;40.10
3312;DHT22;1668;49.648;8.570;2023-07-13T01:03:21;21.20;43.30
3312;DHT22;1668;49.648;8.570;2023-07-13T01:05:49;21.10;43.60
3312;DHT22;1668;49.648;8.570;2023-07-13T01:08:17;21.10;43.80
3312;DHT22;1668;49.648;8.570;2023-07-13T01:10:51;21.00;44.80
3312;DHT22;1668;49.648;8.570;2023-07-13T01:13:20;21.00;45.00
3312;DHT22;1668;49.648;8.570;2023-07-13T01:15:49;20.90;44.30
3312;DHT22;1668;49.648;8.570;2023-07-13T01:18:18;20.90;44.40
3312;DHT22;1668;49.648;8.570;2023-07-13T01:20:51;20.90;43.60
3312;DHT22;1668;49.648;8.570;2023-07-13T01:23:18;20.80;43.60
3312;DHT22;1668;49.648;8.570;2023-07-13T01:25:45;20.80;43.80
3312;DHT22;1668;49.648;8.570;2023-07-13T01:28:12;20.80;44.20
3312;DHT22;1668;49.648;8.570;2023-07-13T01:30:40;20.70;44.70
3312;DHT22;1668;49.648;8.570;2023-07-13T01:33:11;20.70;44.90
3312;DHT22;1668;49.648;8.570;2023-07-13T01:35:39;20.60;44.50
3312;DHT22;1668;49.648;8.570;2023-07-13T01:38:08;20.60;45.40
3312;DHT22;1668;49.648;8.570;2023-07-13T01:40:35;20.60;47.30
3312;DHT22;1668;49.648;8.570;2023-07-13T01:43:03;20.50;48.10
3312;DHT22;1668;49.648;8.570;2023-07-13T01:45:30;20.40;48.40
3312;DHT22;1668;49.648;8.570;2023-07-13T01:47:57;20.30;50.30
3312;DHT22;1668;49.648;8.570;2023-07-13T01:50:24;20.30;51.10
3312;DHT22;1668;49.648;8.570;2023-07-13T01:52:52;20.30;51.80
3312;DHT22;1668;49.648;8.570;2023-07-13T01:55:21;20.20;53.00
3312;DHT22;1668;49.648;8.570;2023-07-13T01:57:48;20.20;53.00
3312;DHT22;1668;49.648;8.570;2023-07-13T02:00:16;20.20;53.10
3312;DHT22;1668;49.648;8.570;2023-07-13T02:02:43;20.10;52.00
3312;DHT22;1668;49.648;8.570;2023-07-13T02:05:10;20.00;53.10
3312;DHT22;1668;49.648;8.570;2023-07-13T02:07:37;19.90;52.80
3312;DHT22;1668;49.648;8.570;2023-07-13T02:10:04;19.90;53.00
3312;DHT22;1668;49.648;8.570;2023-07-13T02:12:33;19.90;52.10
3312;DHT22;1668;49.648;8.570;2023-07-13T02:15:00;19.90;51.90
3312;DHT22;1668;49.648;8.570;2023-07-13T02:17:27;19.90;52.10
3312;DHT22;1668;49.648;8.570;2023-07-13T02:19:54;19.90;51.30
3312;DHT22;1668;49.648;8.570;2023-07-13T02:22:21;19.80;49.70
3312;DHT22;1668;49.648;8.570;2023-07-13T02:24:47;19.80;1.00
3312;DHT22;1668;49.648;8.570;2023-07-13T02:27:14;19.80;1.00
3312;DHT22;1668;49.648;8.570;2023-07-13T02:29:43;19.80;1.00
3312;DHT22;1668;49.648;8.570;2023-07-13T02:32:09;19.70;1.00
3312;DHT22;1668;49.648;8.570;2023-07-13T02:34:36;19.70;1.00
3312;DHT22;1668;49.648;8.570;2023-07-13T02:37:04;19.60;1.00
3312;DHT22;1668;49.648;8.570;2023-07-13T02:39:30;19.60;1.00
3312;DHT22;1668;49.648;8.570;2023-07-13T02:41:59;19.40;1.00
3312;DHT22;1668;49.648;8.570;2023-07-13T02:44:26;19.30;1.00
3312;DHT22;1668;49.648;8.570;2023-07-13T02:46:54;19.30;1.00
3312;DHT22;1668;49.648;8.570;2023-07-13T02:49:21;19.30;1.00
3312;DHT22;1668;49.648;8.570;2023-07-13T02:51:48;19.30;1.00
3312;DHT22;1668;49.648;8.570;2023-07-13T02:54:15;19.20;1.00
3312;DHT22;1668;49.648;8.570;2023-07-13T02:56:42;19.20;99.90
3312;DHT22;1668;49.648;8.570;2023-07-13T02:59:09;19.20;1.00
3312;DHT22;1668;49.648;8.570;2023-07-13T03:01:36;19.10;1.00
3312;DHT22;1668;49.648;8.570;2023-07-13T03:04:04;19.10;1.00
3312;DHT22;1668;49.648;8.570;2023-07-13T03:06:32;19.10;1.00
3312;DHT22;1668;49.648;8.570;2023-07-13T03:08:59;19.10;1.00
3312;DHT22;1668;49.648;8.570;2023-07-13T03:11:32;19.10;1.00
3312;DHT22;1668;49.648;8.570;2023-07-13T03:14:27;19.10;1.00
3312;DHT22;1668;49.648;8.570;2023-07-13T03:16:54;19.00;1.00
3312;DHT22;1668;49.648;8.570;2023-07-13T03:19:22;19.00;1.00
3312;DHT22;1668;49.648;8.570;2023-07-13T03:21:56;19.00;1.00
3312;DHT22;1668;49.648;8.570;2023-07-13T03:24:48;18.90;2.10
3312;DHT22;1668;49.648;8.570;2023-07-13T03:27:15;18.90;13.90
3312;DHT22;1668;49.648;8.570;2023-07-13T03:29:42;18.90;64.50
3312;DHT22;1668;49.648;8.570;2023-07-13T03:32:09;18.90;64.40
3312;DHT22;1668;49.648;8.570;2023-07-13T03:34:37;18.80;66.50
3312;DHT22;1668;49.648;8.570;2023-07-13T03:37:05;18.70;66.90
3312;DHT22;1668;49.648;8.570;2023-07-13T03:39:32;18.70;65.80
3312;DHT22;1668;49.648;8.570;2023-07-13T03:41:59;18.70;99.90
3312;DHT22;1668;49.648;8.570;2023-07-13T03:44:26;18.70;68.50
3312;DHT22;1668;49.648;8.570;2023-07-13T03:46:54;18.70;68.90
3312;DHT22;1668;49.648;8.570;2023-07-13T03:49:23;18.70;69.30
3312;DHT22;1668;49.648;8.570;2023-07-13T03:51:51;18.70;70.10
3312;DHT22;1668;49.648;8.570;2023-07-13T03:54:18;18.60;70.90
3312;DHT22;1668;49.648;8.570;2023-07-13T03:56:45;18.60;71.90
3312;DHT22;1668;49.648;8.570;2023-07-13T03:59:12;18.60;72.10
3312;DHT22;1668;49.648;8.570;2023-07-13T04:01:38;18.60;73.60
3312;DHT22;1668;49.648;8.570;2023-07-13T04:04:05;18.60;75.40
3312;DHT22;1668;49.648;8.570;2023-07-13T04:06:32;18.60;73.60
3312;DHT22;1668;49.648;8.570;2023-07-13T04:09:02;18.50;75.60
3312;DHT22;1668;49.648;8.570;2023-07-13T04:11:31;18.60;76.70
3312;DHT22;1668;49.648;8.570;2023-07-13T04:13:58;18.60;77.70
3312;DHT22;1668;49.648;8.570;2023-07-13T04:16:25;18.60;79.70
3312;DHT22;1668;49.648;8.570;2023-07-13T04:18:55;18.60;79.90
3312;DHT22;1668;49.648;8.570;2023-07-13T04:21:25;18.60;81.40
3312;DHT22;1668;49.648;8.570;2023-07-13T04:23:52;18.60;81.10
3312;DHT22;1668;49.648;8.570;2023-07-13T04:26:20;18.60;82.30
3312;DHT22;1668;49.648;8.570;2023-07-13T04:28:48;18.60;1.00
3312;DHT22;1668;49.648;8.570;2023-07-13T04:31:15;18.60;1.00
3312;DHT22;1668;49.648;8.570;2023-07-13T04:33:42;18.60;1.00
3312;DHT22;1668;49.648;8.570;2023-07-13T04:36:09;18.50;99.90
3312;DHT22;1668;49.648;8.570;2023-07-13T04:38:36;18.40;99.90
3312;DHT22;1668;49.648;8.570;2023-07-13T04:41:06;18.40;99.90
3312;DHT22;1668;49.648;8.570;2023-07-13T04:43:35;18.50;99.90
3312;DHT22;1668;49.648;8.570;2023-07-13T04:46:07;18.50;99.90
3312;DHT22;1668;49.648;8.570;2023-07-13T04:48:34;18.50;99.90
3312;DHT22;1668;49.648;8.570;2023-07-13T04:51:02;18.40;99.90
3312;DHT22;1668;49.648;8.570;2023-07-13T04:53:29;18.40;99.90
3312;DHT22;1668;49.648;8.570;2023-07-13T04:55:57;18.40;99.90
3312;DHT22;1668;49.648;8.570;2023-07-13T04:58:25;18.50;99.90
3312;DHT22;1668;49.648;8.570;2023-07-13T05:00:53;18.50;99.90
3312;DHT22;1668;49.648;8.570;2023-07-13T05:03:25;18.40;99.90
3312;DHT22;1668;49.648;8.570;2023-07-13T05:05:56;18.50;1.00
3312;DHT22;1668;49.648;8.570;2023-07-13T05:08:23;18.50;1.00
3312;DHT22;1668;49.648;8.570;2023-07-13T05:10:50;18.50;37.70
3312;DHT22;1668;49.648;8.570;2023-07-13T05:13:17;18.50;1.00
3312;DHT22;1668;49.648;8.570;2023-07-13T05:15:44;18.50;1.00
3312;DHT22;1668;49.648;8.570;2023-07-13T05:18:13;18.50;99.90
3312;DHT22;1668;49.648;8.570;2023-07-13T05:20:39;18.50;93.50
3312;DHT22;1668;49.648;8.570;2023-07-13T05:23:06;18.50;1.00
3312;DHT22;1668;49.648;8.570;2023-07-13T05:25:33;18.60;99.90
3312;DHT22;1668;49.648;8.570;2023-07-13T05:28:00;18.50;99.90
3312;DHT22;1668;49.648;8.570;2023-07-13T05:30:27;18.50;1.00
3312;DHT22;1668;49.648;8.570;2023-07-13T05:32:54;18.50;1.00
3312;DHT22;1668;49.648;8.570;2023-07-13T05:35:22;18.50;1.00
3312;DHT22;1668;49.648;8.570;2023-07-13T05:37:49;18.60;99.90
3312;DHT22;1668;49.648;8.570;2023-07-13T05:40:16;18.60;1.00
3312;DHT22;1668;49.648;8.570;2023-07-13T05:42:43;18.60;1.00
3312;DHT22;1668;49.648;8.570;2023-07-13T05:45:10;18.70;99.90
3312;DHT22;1668;49.648;8.570;2023-07-13T05:47:37;18.60;99.90
3312;DHT22;1668;49.648;8.570;2023-07-13T05:50:05;18.60;99.90
3312;DHT22;1668;49.648;8.570;2023-07-13T05:52:33;18.70;43.60
3312;DHT22;1668;49.648;8.570;2023-07-13T05:55:00;18.70;31.30
3312;DHT22;1668;49.648;8.570;2023-07-13T05:57:28;18.70;99.90
3312;DHT22;1668;49.648;8.570;2023-07-13T05:59:55;18.70;1.00
3312;DHT22;1668;49.648;8.570;2023-07-13T06:02:22;18.70;1.00
3312;DHT22;1668;49.648;8.570;2023-07-13T06:04:49;18.70;1.00
3312;DHT22;1668;49.648;8.570;2023-07-13T06:07:16;18.70;1.00
3312;DHT22;1668;49.648;8.570;2023-07-13T06:09:44;18.80;99.90
3312;DHT22;1668;49.648;8.570;2023-07-13T06:12:11;18.80;99.90
3312;DHT22;1668;49.648;8.570;2023-07-13T06:14:40;18.80;1.00
3312;DHT22;1668;49.648;8.570;2023-07-13T06:17:07;18.90;1.00
3312;DHT22;1668;49.648;8.570;2023-07-13T06:19:34;18.90;36.30
3312;DHT22;1668;49.648;8.570;2023-07-13T06:22:01;18.90;1.00
3312;DHT22;1668;49.648;8.570;2023-07-13T06:24:29;18.90;1.00
3312;DHT22;1668;49.648;8.570;2023-07-13T06:26:57;18.80;99.90
3312;DHT22;1668;49.648;8.570;2023-07-13T06:29:24;18.80;1.00
3312;DHT22;1668;49.648;8.570;2023-07-13T06:31:51;18.90;99.90
3312;DHT22;1668;49.648;8.570;2023-07-13T06:34:18;18.90;1.00
3312;DHT22;1668;49.648;8.570;2023-07-13T06:36:45;19.00;99.90
3312;DHT22;1668;49.648;8.570;2023-07-13T06:39:12;19.00;1.00
3312;DHT22;1668;49.648;8.570;2023-07-13T06:41:39;19.00;1.00
3312;DHT22;1668;49.648;8.570;2023-07-13T06:44:07;19.00;99.90
3312;DHT22;1668;49.648;8.570;2023-07-13T06:46:34;19.10;99.90
3312;DHT22;1668;49.648;8.570;2023-07-13T06:49:01;19.10;99.90
3312;DHT22;1668;49.648;8.570;2023-07-13T06:51:27;19.20;94.10
3312;DHT22;1668;49.648;8.570;2023-07-13T06:53:54;19.30;99.90
3312;DHT22;1668;49.648;8.570;2023-07-13T06:56:21;19.30;99.90
3312;DHT22;1668;49.648;8.570;2023-07-13T06:58:48;19.30;1.00
3312;DHT22;1668;49.648;8.570;2023-07-13T07:01:16;19.30;1.00
3312;DHT22;1668;49.648;8.570;2023-07-13T07:03:43;19.40;1.00
3312;DHT22;1668;49.648;8.570;2023-07-13T07:06:13;19.40;1.00
3312;DHT22;1668;49.648;8.570;2023-07-13T07:08:40;19.50;1.00
3312;DHT22;1668;49.648;8.570;2023-07-13T07:11:10;19.60;1.00
3312;DHT22;1668;49.648;8.570;2023-07-13T07:13:38;19.60;99.90
3312;DHT22;1668;49.648;8.570;2023-07-13T07:16:05;19.70;1.00
3312;DHT22;1668;49.648;8.570;2023-07-13T07:18:33;19.80;99.90
3312;DHT22;1668;49.648;8.570;2023-07-13T07:21:00;19.90;1.00
3312;DHT22;1668;49.648;8.570;2023-07-13T07:23:27;19.90;99.90
3312;DHT22;1668;49.648;8.570;2023-07-13T07:25:54;20.00;99.90
3312;DHT22;1668;49.648;8.570;2023-07-13T07:28:21;20.10;99.90
3312;DHT22;1668;49.648;8.570;2023-07-13T07:30:48;20.20;1.00
3312;DHT22;1668;49.648;8.570;2023-07-13T07:33:15;20.30;1.00
3312;DHT22;1668;49.648;8.570;2023-07-13T07:35:44;20.40;1.00
3312;DHT22;1668;49.648;8.570;2023-07-13T07:38:10;20.60;17.10
3312;DHT22;1668;49.648;8.570;2023-07-13T07:40:38;20.70;4.70
3312;DHT22;1668;49.648;8.570;2023-07-13T07:43:05;20.70;6.90
3312;DHT22;1668;49.648;8.570;2023-07-13T07:45:33;20.80;1.00
3312;DHT22;1668;49.648;8.570;2023-07-13T07:48:00;20.90;21.40
3312;DHT22;1668;49.648;8.570;2023-07-13T07:50:27;21.00;20.30
3312;DHT22;1668;49.648;8.570;2023-07-13T07:52:56;21.10;30.10
3312;DHT22;1668;49.648;8.570;2023-07-13T07:55:23;21.10;34.30
3312;DHT22;1668;49.648;8.570;2023-07-13T07:57:51;21.10;32.90
3312;DHT22;1668;49.648;8.570;2023-07-13T08:00:19;21.10;1.00
3312;DHT22;1668;49.648;8.570;2023-07-13T08:02:46;21.10;24.90
3312;DHT22;1668;49.648;8.570;2023-07-13T08:05:12;21.10;9.80
3312;DHT22;1668;49.648;8.570;2023-07-13T08:07:40;21.00;25.70
3312;DHT22;1668;49.648;8.570;2023-07-13T08:10:09;21.00;1.00
3312;DHT22;1668;49.648;8.570;2023-07-13T08:12:36;21.10;6.70
3312;DHT22;1668;49.648;8.570;2023-07-13T08:15:04;21.10;1.00
3312;DHT22;1668;49.648;8.570;2023-07-13T08:17:31;21.10;1.00
3312;DHT22;1668;49.648;8.570;2023-07-13T08:19:58;21.20;12.10
3312;DHT22;1668;49.648;8.570;2023-07-13T08:22:25;21.20;14.90
3312;DHT22;1668;49.648;8.570;2023-07-13T08:24:52;21.30;17.60
3312;DHT22;1668;49.648;8.570;2023-07-13T08:27:28;21.30;1.00
3312;DHT22;1668;49.648;8.570;2023-07-13T08:29:56;21.30;17.00
3312;DHT22;1668;49.648;8.570;2023-07-13T08:32:24;21.40;57.90
3312;DHT22;1668;49.648;8.570;2023-07-13T08:34:51;21.40;55.30
3312;DHT22;1668;49.648;8.570;2023-07-13T08:37:18;21.40;55.00
3312;DHT22;1668;49.648;8.570;2023-07-13T08:39:45;21.40;53.00
3312;DHT22;1668;49.648;8.570;2023-07-13T08:42:18;21.40;53.20
3312;DHT22;1668;49.648;8.570;2023-07-13T08:44:57;21.50;52.10
3312;DHT22;1668;49.648;8.570;2023-07-13T08:47:28;21.50;52.60
3312;DHT22;1668;49.648;8.570;2023-07-13T08:49:57;21.60;54.30
3312;DHT22;1668;49.648;8.570;2023-07-13T08:52:30;21.60;52.70
3312;DHT22;1668;49.648;8.570;2023-07-13T08:55:02;21.70;53.60
3312;DHT22;1668;49.648;8.570;2023-07-13T08:57:33;21.80;53.10
3312;DHT22;1668;49.648;8.570;2023-07-13T09:00:03;21.90;53.20
3312;DHT22;1668;49.648;8.570;2023-07-13T09:02:40;21.90;52.30
3312;DHT22;1668;49.648;8.570;2023-07-13T09:05:12;21.90;52.90
3312;DHT22;1668;49.648;8.570;2023-07-13T09:07:51;21.90;55.10
3312;DHT22;1668;49.648;8.570;2023-07-13T09:10:27;21.90;53.60
3312;DHT22;1668;49.648;8.570;2023-07-13T09:13:07;22.00;52.10
3312;DHT22;1668;49.648;8.570;2023-07-13T09:15:41;22.10;51.40
3312;DHT22;1668;49.648;8.570;2023-07-13T09:18:10;22.30;50.30
3312;DHT22;1668;49.648;8.570;2023-07-13T09:20:41;22.40;49.90
3312;DHT22;1668;49.648;8.570;2023-07-13T09:23:14;22.50;50.20
3312;DHT22;1668;49.648;8.570;2023-07-13T09:25:42;22.50;51.30
3312;DHT22;1668;49.648;8.570;2023-07-13T09:28:11;22.70;50.80
3312;DHT22;1668;49.648;8.570;2023-07-13T09:30:50;22.80;48.80
3312;DHT22;1668;49.648;8.570;2023-07-13T09:33:18;23.00;46.90
3312;DHT22;1668;49.648;8.570;2023-07-13T09:35:45;23.10;45.60
3312;DHT22;1668;49.648;8.570;2023-07-13T09:38:14;23.10;43.80
3312;DHT22;1668;49.648;8.570;2023-07-13T09:40:57;23.20;45.00
3312;DHT22;1668;49.648;8.570;2023-07-13T09:43:25;23.30;41.80
3312;DHT22;1668;49.648;8.570;2023-07-13T09:45:55;23.30;41.80
3312;DHT22;1668;49.648;8.570;2023-07-13T09:48:22;23.30;41.30
3312;DHT22;1668;49.648;8.570;2023-07-13T09:50:54;23.40;41.90
3312;DHT22;1668;49.648;8.570;2023-07-13T09:53:22;23.50;41.40
3312;DHT22;1668;49.648;8.570;2023-07-13T09:55:50;23.50;41.90
3312;DHT22;1668;49.648;8.570;2023-07-13T09:58:18;23.60;41.20
3312;DHT22;1668;49.648;8.570;2023-07-13T10:00:56;23.60;40.00
3312;DHT22;1668;49.648;8.570;2023-07-13T10:03:25;23.70;40.00
3312;DHT22;1668;49.648;8.570;2023-07-13T10:05:53;23.70;40.10
3312;DHT22;1668;49.648;8.570;2023-07-13T10:08:23;23.90;39.30
3312;DHT22;1668;49.648;8.570;2023-07-13T10:10:57;23.90;36.50
3312;DHT22;1668;49.648;8.570;2023-07-13T10:13:32;24.00;36.00
3312;DHT22;1668;49.648;8.570;2023-07-13T10:16:02;24.00;35.50
3312;DHT22;1668;49.648;8.570;2023-07-13T10:18:38;23.90;35.50
3312;DHT22;1668;49.648;8.570;2023-07-13T10:21:12;23.90;34.50
3312;DHT22;1668;49.648;8.570;2023-07-13T10:23:41;23.90;34.90
3312;DHT22;1668;49.648;8.570;2023-07-13T10:26:14;24.10;35.90
3312;DHT22;1668;49.648;8.570;2023-07-13T10:28:42;24.10;34.30
3312;DHT22;1668;49.648;8.570;2023-07-13T10:31:14;24.10;35.40
3312;DHT22;1668;49.648;8.570;2023-07-13T10:33:42;24.20;34.80
3312;DHT22;1668;49.648;8.570;2023-07-13T10:36:14;24.30;34.30
3312;DHT22;1668;49.648;8.570;2023-07-13T10:38:43;24.40;35.30
3312;DHT22;1668;49.648;8.570;2023-07-13T10:41:15;24.30;33.70
3312;DHT22;1668;49.648;8.570;2023-07-13T10:43:45;24.30;33.20
3312;DHT22;1668;49.648;8.570;2023-07-13T10:46:19;24.20;32.70
3312;DHT22;1668;49.648;8.570;2023-07-13T10:48:49;24.30;32.30
3312;DHT22;1668;49.648;8.570;2023-07-13T10:51:18;24.40;33.00
3312;DHT22;1668;49.648;8.570;2023-07-13T10:53:47;24.30;32.60
3312;DHT22;1668;49.648;8.570;2023-07-13T10:56:23;24.30;32.30
3312;DHT22;1668;49.648;8.570;2023-07-13T10:59:02;24.30;30.70
3312;DHT22;1668;49.648;8.570;2023-07-13T11:01:52;24.30;31.00
3312;DHT22;1668;49.648;8.570;2023-07-13T11:04:22;24.40;30.80
3312;DHT22;1668;49.648;8.570;2023-07-13T11:06:53;24.50;32.30
3312;DHT22;1668;49.648;8.570;2023-07-13T11:09:33;24.70;32.80
3312;DHT22;1668;49.648;8.570;2023-07-13T11:12:06;24.90;32.10
3312;DHT22;1668;49.648;8.570;2023-07-13T11:14:35;24.90;30.00
3312;DHT22;1668;49.648;8.570;2023-07-13T11:17:32;24.90;29.00
3312;DHT22;1668;49.648;8.570;2023-07-13T11:22:53;25.00;28.90
3312;DHT22;1668;49.648;8.570;2023-07-13T11:25:35;25.10;29.50
3312;DHT22;1668;49.648;8.570;2023-07-13T11:28:16;25.30;28.60
3312;DHT22;1668;49.648;8.570;2023-07-13T11:30:46;25.30;28.30
3312;DHT22;1668;49.648;8.570;2023-07-13T11:33:17;25.30;28.40
3312;DHT22;1668;49.648;8.570;2023-07-13T11:35:52;25.30;28.20
3312;DHT22;1668;49.648;8.570;2023-07-13T11:38:21;25.20;29.20
3312;DHT22;1668;49.648;8.570;2023-07-13T11:40:51;25.20;28.60
3312;DHT22;1668;49.648;8.570;2023-07-13T11:43:20;25.30;29.10
3312;DHT22;1668;49.648;8.570;2023-07-13T11:45:49;25.40;26.90
3312;DHT22;1668;49.648;8.570;2023-07-13T11:48:23;25.20;27.40
3312;DHT22;1668;49.648;8.570;2023-07-13T11:50:53;25.40;26.50
3312;DHT22;1668;49.648;8.570;2023-07-13T11:53:20;25.60;27.40
3312;DHT22;1668;49.648;8.570;2023-07-13T11:55:48;25.80;26.40
3312;DHT22;1668;49.648;8.570;2023-07-13T11:58:19;25.90;25.60
3312;DHT22;1668;49.648;8.570;2023-07-13T12:00:48;25.80;24.70
3312;DHT22;1668;49.648;8.570;2023-07-13T12:03:18;25.70;24.90
3312;DHT22;1668;49.648;8.570;2023-07-13T12:05:57;25.60;25.00
3312;DHT22;1668;49.648;8.570;2023-07-13T12:08:25;25.50;23.70
3312;DHT22;1668;49.648;8.570;2023-07-13T12:11:05;25.80;23.70
3312;DHT22;1668;49.648;8.570;2023-07-13T12:13:36;26.10;22.90
3312;DHT22;1668;49.648;8.570;2023-07-13T12:16:12;26.60;22.00
3312;DHT22;1668;49.648;8.570;2023-07-13T12:18:43;26.40;21.30
3312;DHT22;1668;49.648;8.570;2023-07-13T12:21:17;26.20;23.60
3312;DHT22;1668;49.648;8.570;2023-07-13T12:23:47;26.00;22.70
3312;DHT22;1668;49.648;8.570;2023-07-13T12:26:15;25.80;22.30
3312;DHT22;1668;49.648;8.570;2023-07-13T12:28:46;25.70;22.90
3312;DHT22;1668;49.648;8.570;2023-07-13T12:31:34;25.70;24.70
3312;DHT22;1668;49.648;8.570;2023-07-13T12:34:06;25.50;24.50
3312;DHT22;1668;49.648;8.570;2023-07-13T12:36:36;25.50;25.50
3312;DHT22;1668;49.648;8.570;2023-07-13T12:39:15;25.40;24.30
3312;DHT22;1668;49.648;8.570;2023-07-13T12:41:42;25.40;24.50
3312;DHT22;1668;49.648;8.570;2023-07-13T12:44:12;25.50;24.20
3312;DHT22;1668;49.648;8.570;2023-07-13T12:46:39;25.80;23.90
3312;DHT22;1668;49.648;8.570;2023-07-13T12:49:07;26.40;24.40
3312;DHT22;1668;49.648;8.570;2023-07-13T12:51:37;26.70;22.00
3312;DHT22;1668;49.648;8.570;2023-07-13T12:54:15;26.40;20.90
3312;DHT22;1668;49.648;8.570;2023-07-13T12:56:43;26.30;21.00
3312;DHT22;1668;49.648;8.570;2023-07-13T12:59:17;26.20;21.80
3312;DHT22;1668;49.648;8.570;2023-07-13T13:01:45;26.40;23.10
3312;DHT22;1668;49.648;8.570;2023-07-13T13:04:12;26.30;23.10
3312;DHT22;1668;49.648;8.570;2023-07-13T13:06:41;26.30;23.10
3312;DHT22;1668;49.648;8.570;2023-07-13T13:09:12;26.20;23.00
3312;DHT22;1668;49.648;8.570;2023-07-13T13:11:39;26.20;22.20
3312;DHT22;1668;49.648;8.570;2023-07-13T13:14:06;26.00;22.60
3312;DHT22;1668;49.648;8.570;2023-07-13T13:16:35;26.00;23.20
3312;DHT22;1668;49.648;8.570;2023-07-13T13:19:13;25.80;23.60
3312;DHT22;1668;49.648;8.570;2023-07-13T13:21:42;25.70;23.10
3312;DHT22;1668;49.648;8.570;2023-07-13T13:24:11;25.70;24.30
3312;DHT22;1668;49.648;8.570;2023-07-13T13:26:39;25.70;23.80
3312;DHT22;1668;49.648;8.570;2023-07-13T13:29:12;25.70;23.90
3312;DHT22;1668;49.648;8.570;2023-07-13T13:31:40;25.70;24.30
3312;DHT22;1668;49.648;8.570;2023-07-13T13:34:09;25.60;23.20
3312;DHT22;1668;49.648;8.570;2023-07-13T13:36:37;25.60;23.40
3312;DHT22;1668;49.648;8.570;2023-07-13T13:39:18;25.60;24.40
3312;DHT22;1668;49.648;8.570;2023-07-13T13:41:45;25.60;23.10
3312;DHT22;1668;49.648;8.570;2023-07-13T13:44:14;25.60;24.40
3312;DHT22;1668;49.648;8.570;2023-07-13T13:46:41;25.60;24.00
3312;DHT22;1668;49.648;8.570;2023-07-13T13:49:13;25.60;24.10
3312;DHT22;1668;49.648;8.570;2023-07-13T13:51:41;25.50;23.70
3312;DHT22;1668;49.648;8.570;2023-07-13T13:54:12;25.50;23.70
3312;DHT22;1668;49.648;8.570;2023-07-13T13:56:41;25.30;24.10
3312;DHT22;1668;49.648;8.570;2023-07-13T13:59:08;25.20;24.70
3312;DHT22;1668;49.648;8.570;2023-07-13T14:01:36;25.20;25.00
3312;DHT22;1668;49.648;8.570;2023-07-13T14:04:03;25.20;25.60
3312;DHT22;1668;49.648;8.570;2023-07-13T14:06:31;25.30;25.20
3312;DHT22;1668;49.648;8.570;2023-07-13T14:08:59;25.30;25.40
3312;DHT22;1668;49.648;8.570;2023-07-13T14:11:29;25.30;25.50
3312;DHT22;1668;49.648;8.570;2023-07-13T14:13:59;25.40;26.10
3312;DHT22;1668;49.648;8.570;2023-07-13T14:16:28;25.80;25.30
3312;DHT22;1668;49.648;8.570;2023-07-13T14:18:57;26.10;24.80
3312;DHT22;1668;49.648;8.570;2023-07-13T14:21:26;25.90;23.50
3312;DHT22;1668;49.648;8.570;2023-07-13T14:23:54;25.80;23.80
3312;DHT22;1668;49.648;8.570;2023-07-13T14:26:23;25.80;23.40
3312;DHT22;1668;49.648;8.570;2023-07-13T14:28:53;25.80;23.10
3312;DHT22;1668;49.648;8.570;2023-07-13T14:31:21;25.60;23.40
3312;DHT22;1668;49.648;8.570;2023-07-13T14:33:48;25.70;23.60
3312;DHT22;1668;49.648;8.570;2023-07-13T14:36:27;25.70;23.80
3312;DHT22;1668;49.648;8.570;2023-07-13T14:38:54;25.70;24.10
3312;DHT22;1668;49.648;8.570;2023-07-13T14:41:21;25.70;24.40
3312;DHT22;1668;49.648;8.570;2023-07-13T14:43:49;25.70;24.20
3312;DHT22;1668;49.648;8.570;2023-07-13T14:46:26;25.80;23.90
3312;DHT22;1668;49.648;8.570;2023-07-13T14:49:01;25.70;23.60
3312;DHT22;1668;49.648;8.570;2023-07-13T14:51:29;25.80;22.70
3312;DHT22;1668;49.648;8.570;2023-07-13T14:53:57;25.70;23.50
3312;DHT22;1668;49.648;8.570;2023-07-13T14:56:25;25.70;23.40
3312;DHT22;1668;49.648;8.570;2023-07-13T14:58:52;25.70;23.00
3312;DHT22;1668;49.648;8.570;2023-07-13T15:01:21;25.70;22.80
3312;DHT22;1668;49.648;8.570;2023-07-13T15:03:51;25.60;24.00
3312;DHT22;1668;49.648;8.570;2023-07-13T15:06:19;25.50;22.50
3312;DHT22;1668;49.648;8.570;2023-07-13T15:08:46;25.50;22.70
3312;DHT22;1668;49.648;8.570;2023-07-13T15:11:15;25.50;22.90
3312;DHT22;1668;49.648;8.570;2023-07-13T15:13:42;25.50;23.10
3312;DHT22;1668;49.648;8.570;2023-07-13T15:16:16;25.50;23.00
3312;DHT22;1668;49.648;8.570;2023-07-13T15:18:46;25.50;23.30
3312;DHT22;1668;49.648;8.570;2023-07-13T15:21:23;25.50;23.50
3312;DHT22;1668;49.648;8.570;2023-07-13T15:23:53;25.50;24.20
3312;DHT22;1668;49.648;8.570;2023-07-13T15:26:20;25.50;23.50
3312;DHT22;1668;49.648;8.570;2023-07-13T15:28:47;25.50;23.50
3312;DHT22;1668;49.648;8.570;2023-07-13T15:31:21;25.70;22.50
3312;DHT22;1668;49.648;8.570;2023-07-13T15:33:51;25.80;22.70
3312;DHT22;1668;49.648;8.570;2023-07-13T15:36:19;26.00;23.90
3312;DHT22;1668;49.648;8.570;2023-07-13T15:38:47;25.90;22.70
3312;DHT22;1668;49.648;8.570;2023-07-13T15:41:19;26.10;23.20
3312;DHT22;1668;49.648;8.570;2023-07-13T15:43:48;26.00;22.50
3312;DHT22;1668;49.648;8.570;2023-07-13T15:46:17;26.10;21.60
3312;DHT22;1668;49.648;8.570;2023-07-13T15:48:45;26.20;21.20
3312;DHT22;1668;49.648;8.570;2023-07-13T15:51:20;26.20;20.50
3312;DHT22;1668;49.648;8.570;2023-07-13T15:53:47;26.20;19.80
3312;DHT22;1668;49.648;8.570;2023-07-13T15:56:20;26.00;19.50
3312;DHT22;1668;49.648;8.570;2023-07-13T15:58:48;26.10;19.10
3312;DHT22;1668;49.648;8.570;2023-07-13T16:01:15;26.10;19.90
3312;DHT22;1668;49.648;8.570;2023-07-13T16:03:42;26.00;20.70
3312;DHT22;1668;49.648;8.570;2023-07-13T16:06:19;26.10;20.80
3312;DHT22;1668;49.648;8.570;2023-07-13T16:08:49;26.00;20.00
3312;DHT22;1668;49.648;8.570;2023-07-13T16:11:20;25.80;20.00
3312;DHT22;1668;49.648;8.570;2023-07-13T16:13:49;25.70;20.30
3312;DHT22;1668;49.648;8.570;2023-07-13T16:16:19;25.70;20.80
3312;DHT22;1668;49.648;8.570;2023-07-13T16:18:46;25.70;19.90
3312;DHT22;1668;49.648;8.570;2023-07-13T16:21:14;25.70;20.10
3312;DHT22;1668;49.648;8.570;2023-07-13T16:23:43;25.70;20.70